If you wish to contribute or participate in the discussions about articles you are invited to join SKYbrary as a registered user

 Actions

Longreach Airport

From SKYbrary Wiki

YLRE
Airport
ICAO: YLRE – IATA: LRE
Summary
Name Longreach Airport
Region Asia and Pacific
Territory "YL" is not in the list (AG, AN, AY, BG, BI, BK, C, CT, DA, DB, ...) of allowed values for the "ICAO Territory" property.
Location , Queensland
Serving Longreach
Elevation 191.11 m
627 ft
627 ft191.11 m
Type medium airport
Coordinates 23° 26' 3.12" S, 144° 16' 48.00" E
Runways
Designator Length Width Surface ROPS
4/22 1936 m6,351.706 ft
30 m98.425 ft
ASP yes/yes
9/27 900 m2,952.756 ft
18 m59.055 ft
GVL /


METAR
Observation YLRE 120000Z AUTO 36017KT 9999 // NCD 34/01 Q1014
Station Longreach Airport
Date/Time 12 November 2019 00:00:00
Wind direction 360°
Wind speed 17 kts
Lowest cloud amount no clouds detected
Temperature 34°C
Dew point 1°C
Humidity 12%
QNH 1014 hPa
Weather condition n/a